Waterford, California
Current Conditions -  °F | °C
As of 6:53 PM on Wednesday 22 Oct 2014 (Local Time) from KMOD Reporting Station
Clear Clear  
Wind Chill: 66°   Ceiling: Unl
Heat Index: 66°   Visibility: 10mi
Dew Point: 45°   Wind: 0mph
Humidity: 47%   Direction: NA
Pressure: 30"   Gusts: NA
Location:  37.64°N, 120.76°W
Report Text: KMOD 230153Z 00000KT 10SM CLR 19/07 A3000 RMK AO2 SLP159 T01890072
Loading
Personal Weather Stations






























Interactive Weather Map New forecast layout! Learn more

10-Day Weather Forecast

Advertisements
Track Severe Weather on mobile